Flight Track Log - Related Links

Times and Time Zones

All times are in EDT time to prevent confusion due to time zone crossing. See the FLG4222 flight status page for this flight to view local times or setup timezone preferences in your user account.

Time Position Orientation Groundspeed Altitude Reporting Facility
EDT Latitude Longitude Course Direction KTS MPH feet Rate Location/Type
Fri 10:55:42 AM 42.2061 -83.3672 94° East 160 184 1,200  Level Cleveland Center
Fri 10:56:13 AM 42.1828 -83.3694 184° South 191 220 2,100 1,976 Climbing Cleveland Center
Fri 10:57:07 AM 42.1328 -83.3600 172° South 203 234 4,000 2,361 Climbing Cleveland Center
Fri 10:57:14 AM 42.1208 -83.3578 172° South 215 247 4,500 1,935 Climbing Cleveland Center
Fri 10:58:09 AM 42.0725 -83.3417 166° South 227 261 6,000 2,154 Climbing Cleveland Center
Fri 10:59:11 AM 42.0578 -83.2472 102° East 289 333 8,700 1,935 Climbing Cleveland Center
Fri 11:00:13 AM 42.0992 -83.1444 61° Northeast 314 361 10,000 1,355 Climbing Cleveland Center
Fri 11:01:00 AM 42.2373 -82.4520 94° East  Level Estimated
Fri 11:01:15 AM 42.1439 -83.0300 62° Northeast 346 398 11,500  Level Cleveland Center
Fri 11:02:17 AM 42.1983 -82.8889 62° Northeast 357 411 13,400 1,355 Climbing Cleveland Center
Fri 11:03:19 AM 42.2492 -82.7597 62° Northeast 390 449 14,300 919 Climbing Cleveland Center
Fri 11:04:21 AM 42.3008 -82.6247 63° Northeast 404 465 15,300 968 Climbing Cleveland Center
Fri 11:05:23 AM 42.3550 -82.4858 62° Northeast 413 475 16,300 1,016 Climbing Cleveland Center
Fri 11:06:25 AM 42.3625 -82.3272 86° East 432 497 17,400 1,065 Climbing Cleveland Center
Fri 11:07:27 AM 42.3542 -82.1325 93° East 433 498 18,500 968 Climbing Cleveland Center
Fri 11:08:29 AM 42.3481 -81.9850 93° East 434 499 19,400 919 Climbing Cleveland Center
Fri 11:09:31 AM 42.3414 -81.8194 93° East 435 501 20,400 1,065 Climbing Cleveland Center
Fri 11:10:33 AM 42.3319 -81.6275 94° East 435 501 21,600 774 Climbing Cleveland Center
Fri 11:11:35 AM 42.3239 -81.4619 94° East 437 503 22,000 672 Climbing Cleveland Center
Fri 11:12:38 AM 42.3164 -81.2908 93° East 447 514 23,000 1,008 Climbing Cleveland Center
Fri 11:13:40 AM 42.3075 -81.1228 94° East 446 513 24,100 1,016 Climbing Cleveland Center
Fri 11:14:42 AM 42.2989 -80.9547 94° East 443 510 25,100 968 Climbing Cleveland Center
Fri 11:15:44 AM 42.2900 -80.7858 94° East 447 514 26,100 919 Climbing Cleveland Center
Fri 11:16:46 AM 42.2814 -80.6214 94° East 435 501 27,000 435 Climbing Cleveland Center
Fri 11:17:48 AM 42.2708 -80.4489 95° East 452 520 27,000  Level Cleveland Center
Fri 11:18:50 AM 42.2606 -80.2394 94° East 472 543 27,000  Level Cleveland Center
Fri 11:19:52 AM 42.2492 -80.0553 95° East 484 557 27,000  Level Cleveland Center
Fri 11:20:54 AM 42.2400 -79.8867 94° East 487 560 27,000  Level Cleveland Center
Fri 11:21:56 AM 42.2286 -79.7050 95° East 490 564 27,000  Level Cleveland Center
Fri 11:22:58 AM 42.2128 -79.4878 96° East 489 563 27,000  Level Cleveland Center
Fri 11:24:00 AM 42.2000 -79.3017 95° East 494 568 27,000  Level Cleveland Center
Fri 11:25:02 AM 42.1889 -79.1172 95° East 496 571 27,000  Level Cleveland Center
Fri 11:26:03 AM 42.1925 -78.9306 88° East 498 573 27,000  Level Cleveland Center
Fri 11:27:05 AM 42.1964 -78.7456 88° East 497 572 27,000 -194 Level Cleveland Center
Fri 11:28:07 AM 42.2000 -78.5594 88° East 497 572 26,600 -1,113 Descending Cleveland Center
Fri 11:29:09 AM 42.2028 -78.3394 89° East 495 570 24,700 -1,645 Descending Cleveland Center
Fri 11:30:11 AM 42.2056 -78.1589 89° East 490 564 23,200 -1,452 Descending Cleveland Center
Fri 11:31:13 AM 42.2067 -77.9822 89° East 481 554 21,700 -1,403 Descending Cleveland Center
Fri 11:32:15 AM 42.2083 -77.8069 89° East 476 548 20,300 -1,403 Descending Cleveland Center
Fri 11:33:17 AM 42.2094 -77.6331 89° East 472 543 18,800 -1,561 Descending Cleveland Center
Fri 11:34:18 AM 42.2111 -77.4344 89° East 452 520 17,100 -878 Descending Cleveland Center
Fri 11:35:20 AM 42.2111 -77.2692 90° East 445 512 17,000 -95 Descending Cleveland Center
Fri 11:36:24 AM 42.2108 -77.0981 90° East 453 521 16,900 -484 Descending New York Center
Fri 11:37:24 AM 42.2092 -76.9300 91° East 448 516 16,000 -1,230 Descending New York Center
Fri 11:38:26 AM 42.2122 -76.7767 88° East 429 494 14,400 -1,645 Descending Cleveland Center
Fri 11:39:28 AM 42.1881 -76.5961 100° East 412 474 12,600 -1,742 Descending Cleveland Center
Fri 11:40:30 AM 42.1611 -76.4636 105° East 372 428 10,800 -1,914 Descending Cleveland Center
Fri 11:41:24 AM 42.1397 -76.3586 105° East 351 404 8,900 -2,053 Descending New York Center
Fri 11:42:24 AM 42.1089 -76.2553 112° Southeast 324 373 6,900 -1,900 Descending New York Center
Fri 11:43:24 AM 42.0739 -76.1603 116° Southeast 297 342 5,100 -950 Descending New York Center
Fri 11:44:24 AM 42.0403 -76.0736 118° Southeast 287 330 5,000 -50 Descending New York Center
Fri 11:45:24 AM 42.0028 -75.9786 118° Southeast 282 325 5,000 -500 Level New York Center
Fri 11:46:24 AM 42.0044 -75.8894 89° East 228 262 4,000 -550 Descending New York Center
Fri 11:47:24 AM 42.0436 -75.8533 34° Northeast 174 200 3,900 -50 Descending New York Center
Fri 11:48:24 AM 42.0903 -75.8794 337° Northwest 125 144 3,900 -250 Level New York Center
Fri 11:49:24 AM 42.1183 -75.9094 322° Northwest 116 133 3,400 -600 Descending New York Center
Fri 11:50:24 AM 42.1503 -75.9372 327° Northwest 126 145 2,700 -750 Descending New York Center
Fri 11:51:24 AM 42.1847 -75.9594 334° Northwest 134 154 1,900 -400 Descending New York Center
Fri 11:52:24 AM 42.2106 -75.9894 319° Northwest 134 154 1,900  Level New York Center

Login

Don't have an account? Register now (free) for customized features, flight alerts, and more!